createdAt,value
2022-09-02T00:01:13.656Z,2.75
2022-09-02T00:03:41.420Z,2.53
2022-09-02T00:06:11.073Z,2.80
2022-09-02T00:08:39.032Z,2.50
2022-09-02T00:11:07.203Z,3.13
2022-09-02T00:13:35.005Z,3.00
2022-09-02T00:16:03.309Z,2.80
2022-09-02T00:18:31.136Z,2.50
2022-09-02T00:20:59.159Z,3.38
2022-09-02T00:23:28.190Z,3.08
2022-09-02T00:25:55.839Z,3.08
2022-09-02T00:28:23.564Z,3.38
2022-09-02T00:30:51.914Z,2.45
2022-09-02T00:33:19.910Z,2.97
2022-09-02T00:35:47.869Z,3.03
2022-09-02T00:38:15.610Z,2.70
2022-09-02T00:40:46.338Z,2.75
2022-09-02T00:43:23.111Z,2.75
2022-09-02T00:45:50.938Z,3.42
2022-09-02T00:48:18.612Z,2.80
2022-09-02T00:50:46.306Z,2.80
2022-09-02T00:53:14.995Z,2.60
2022-09-02T00:55:45.019Z,2.90
2022-09-02T00:58:17.674Z,3.13
2022-09-02T01:00:47.091Z,2.75
2022-09-02T01:03:19.111Z,2.65
2022-09-02T01:05:48.239Z,2.50
2022-09-02T01:08:17.047Z,3.25
2022-09-02T01:10:45.034Z,3.65
2022-09-02T01:13:14.014Z,2.88
2022-09-02T01:15:44.778Z,2.72
2022-09-02T01:18:15.484Z,2.88
2022-09-02T01:20:43.555Z,3.70
2022-09-02T01:23:12.775Z,3.70
2022-09-02T01:25:40.431Z,3.10
2022-09-02T01:28:09.191Z,2.53
2022-09-02T01:30:38.011Z,3.78
2022-09-02T01:33:05.704Z,2.90
2022-09-02T01:35:33.497Z,3.33
2022-09-02T01:38:02.832Z,2.75
2022-09-02T01:40:33.158Z,3.38
2022-09-02T01:43:02.336Z,2.90
2022-09-02T01:45:30.436Z,3.03
2022-09-02T01:47:58.140Z,2.90
2022-09-02T01:50:26.016Z,3.20
2022-09-02T01:52:53.642Z,3.03
2022-09-02T01:55:21.308Z,3.13
2022-09-02T01:57:50.718Z,3.35
2022-09-02T02:00:18.475Z,3.38
2022-09-02T02:02:46.119Z,3.53
2022-09-02T02:05:15.920Z,2.80
2022-09-02T02:07:43.666Z,2.80
2022-09-02T02:10:11.927Z,3.45
2022-09-02T02:12:40.287Z,3.45
2022-09-02T02:15:12.062Z,3.15
2022-09-02T02:17:40.463Z,3.30
2022-09-02T02:20:09.083Z,3.20
2022-09-02T02:22:37.253Z,3.08
2022-09-02T02:25:05.624Z,3.42
2022-09-02T02:27:33.492Z,2.67
2022-09-02T02:30:01.811Z,3.10
2022-09-02T02:32:32.647Z,3.05
2022-09-02T02:35:00.402Z,3.50
2022-09-02T02:37:28.044Z,3.35
2022-09-02T02:39:57.492Z,3.20
2022-09-02T02:42:25.189Z,3.67
2022-09-02T02:44:52.824Z,3.30
2022-09-02T02:47:20.508Z,3.17
2022-09-02T02:49:49.513Z,3.10
2022-09-02T02:52:17.686Z,3.53
2022-09-02T02:54:45.639Z,3.38
2022-09-02T02:57:14.560Z,3.67
2022-09-02T02:59:42.275Z,3.33
2022-09-02T03:02:10.059Z,3.20
2022-09-02T03:04:39.988Z,4.45
2022-09-02T03:07:09.146Z,3.75
2022-09-02T03:09:36.905Z,3.35
2022-09-02T03:12:05.497Z,3.67
2022-09-02T03:14:33.902Z,4.00
2022-09-02T03:17:01.578Z,3.65
2022-09-02T03:19:29.319Z,4.35
2022-09-02T03:21:57.026Z,3.50
2022-09-02T03:24:26.126Z,4.00
2022-09-02T03:26:54.094Z,4.50
2022-09-02T03:29:21.897Z,3.70
2022-09-02T03:31:49.607Z,4.38
2022-09-02T03:34:17.259Z,4.82
2022-09-02T03:36:45.251Z,4.35
2022-09-02T03:39:13.641Z,4.20
2022-09-02T03:41:42.744Z,4.10
2022-09-02T03:44:10.984Z,3.88
2022-09-02T03:46:38.647Z,3.78
2022-09-02T03:49:06.616Z,3.85
2022-09-02T03:51:34.585Z,4.28
2022-09-02T03:54:04.125Z,3.80
2022-09-02T03:56:31.813Z,3.88
2022-09-02T03:59:00.844Z,4.18
2022-09-02T04:01:29.083Z,4.68
2022-09-02T04:04:01.410Z,4.03
2022-09-02T04:06:32.760Z,4.03
2022-09-02T04:09:00.698Z,3.92
2022-09-02T04:11:28.345Z,3.97
2022-09-02T04:13:56.398Z,4.53
2022-09-02T04:16:29.278Z,3.33
2022-09-02T04:18:57.562Z,3.45
2022-09-02T04:21:25.603Z,3.55
2022-09-02T04:23:53.563Z,3.88
2022-09-02T04:26:21.539Z,3.88
2022-09-02T04:28:49.482Z,4.45
2022-09-02T04:31:18.544Z,4.78
2022-09-02T04:33:47.735Z,4.82
2022-09-02T04:36:16.084Z,4.53
2022-09-02T04:38:44.187Z,4.22
2022-09-02T04:41:14.116Z,4.13
2022-09-02T04:43:42.247Z,4.78
2022-09-02T04:46:11.018Z,4.50
2022-09-02T04:48:39.316Z,5.18
2022-09-02T04:51:09.511Z,4.82
2022-09-02T04:53:37.170Z,4.63
2022-09-02T04:56:05.612Z,4.93
2022-09-02T04:58:33.280Z,5.10
2022-09-02T05:01:01.052Z,4.85
2022-09-02T05:03:31.443Z,5.90
2022-09-02T05:05:59.999Z,5.32
2022-09-02T05:08:29.355Z,5.20
2022-09-02T05:10:57.073Z,4.93
2022-09-02T05:13:26.093Z,4.18
2022-09-02T05:15:54.791Z,4.97
2022-09-02T05:18:22.630Z,4.40
2022-09-02T05:20:50.361Z,4.75
2022-09-02T05:23:18.193Z,4.57
2022-09-02T05:25:47.251Z,5.68
2022-09-02T05:28:22.605Z,4.57
2022-09-02T05:30:50.444Z,5.00
2022-09-02T05:33:19.116Z,4.18
2022-09-02T05:35:47.151Z,4.35
2022-09-02T05:38:17.763Z,4.82
2022-09-02T05:40:45.513Z,3.95
2022-09-02T05:43:14.706Z,4.10
2022-09-02T05:45:42.772Z,4.43
2022-09-02T05:48:24.345Z,5.00
2022-09-02T05:50:57.576Z,4.50
2022-09-02T05:53:27.107Z,4.03
2022-09-02T05:55:54.939Z,4.60
2022-09-02T05:58:24.037Z,3.70
2022-09-02T06:00:51.973Z,4.43
2022-09-02T06:03:20.931Z,4.43
2022-09-02T06:05:54.764Z,3.95
2022-09-02T06:08:22.442Z,4.30
2022-09-02T06:10:50.192Z,3.67
2022-09-02T06:13:22.741Z,4.28
2022-09-02T06:15:52.380Z,4.22
2022-09-02T06:18:20.147Z,4.75
2022-09-02T06:20:48.652Z,3.67
2022-09-02T06:23:17.052Z,3.83
2022-09-02T06:25:46.228Z,4.38
2022-09-02T06:28:14.693Z,4.35
2022-09-02T06:30:43.363Z,4.55
2022-09-02T06:33:12.447Z,4.03
2022-09-02T06:35:40.717Z,4.38
2022-09-02T06:38:08.843Z,3.53
2022-09-02T06:40:36.529Z,3.97
2022-09-02T06:43:04.486Z,4.13
2022-09-02T06:45:32.418Z,4.30
2022-09-02T06:48:00.095Z,4.05
2022-09-02T06:50:29.083Z,3.90
2022-09-02T06:52:56.815Z,3.70
2022-09-02T06:55:24.672Z,4.05
2022-09-02T06:57:53.042Z,4.38
2022-09-02T07:00:20.962Z,4.13
2022-09-02T07:03:08.944Z,4.22
2022-09-02T07:05:36.984Z,3.95
2022-09-02T07:08:04.677Z,3.88
2022-09-02T07:10:32.347Z,3.92
2022-09-02T07:13:00.161Z,4.55
2022-09-02T07:15:27.816Z,4.20
2022-09-02T07:17:55.494Z,3.70
2022-09-02T07:20:23.258Z,4.53
2022-09-02T07:22:52.298Z,4.63
2022-09-02T07:25:19.996Z,4.95
2022-09-02T07:27:47.714Z,4.45
2022-09-02T07:30:15.509Z,4.47
2022-09-02T07:32:43.156Z,4.57
2022-09-02T07:35:11.332Z,4.85
2022-09-02T07:37:39.123Z,4.75
2022-09-02T07:40:10.451Z,4.78
2022-09-02T07:42:38.187Z,4.60
2022-09-02T07:45:06.811Z,4.32
2022-09-02T07:47:34.646Z,4.63
2022-09-02T07:50:21.520Z,4.38
2022-09-02T07:52:50.593Z,4.35
2022-09-02T07:55:19.635Z,4.80
2022-09-02T07:57:47.960Z,4.20
2022-09-02T08:00:16.574Z,4.82
2022-09-02T08:02:44.847Z,4.43
2022-09-02T08:05:13.395Z,5.05
2022-09-02T08:07:41.207Z,4.28
2022-09-02T08:10:10.751Z,4.35
2022-09-02T08:12:40.077Z,4.35
2022-09-02T08:15:08.196Z,4.25
2022-09-02T08:17:36.094Z,4.97
2022-09-02T08:20:04.603Z,4.32
2022-09-02T08:25:07.826Z,4.75
2022-09-02T08:27:36.002Z,4.13
2022-09-02T08:30:05.199Z,4.18
2022-09-02T08:32:33.089Z,4.70
2022-09-02T08:35:03.974Z,3.80
2022-09-02T08:37:32.264Z,4.53
2022-09-02T08:39:59.967Z,4.82
2022-09-02T08:42:32.571Z,4.32
2022-09-02T08:45:05.427Z,4.30
2022-09-02T08:47:36.469Z,4.07
2022-09-02T08:50:06.690Z,4.22
2022-09-02T08:52:37.848Z,4.85
2022-09-02T08:55:07.776Z,4.80
2022-09-02T08:57:36.378Z,3.97
2022-09-02T09:00:13.671Z,4.70
2022-09-02T09:02:47.854Z,3.88
2022-09-02T09:05:24.275Z,4.13
2022-09-02T09:07:57.871Z,4.18
2022-09-02T09:10:29.672Z,3.85
2022-09-02T09:13:05.379Z,4.25
2022-09-02T09:15:35.604Z,3.47
2022-09-02T09:18:06.425Z,4.90
2022-09-02T09:20:35.605Z,4.63
2022-09-02T09:23:22.023Z,3.97
2022-09-02T09:25:50.619Z,4.70
2022-09-02T09:28:18.260Z,3.78
2022-09-02T09:30:46.112Z,4.55
2022-09-02T09:33:17.856Z,3.50
2022-09-02T09:35:49.314Z,3.75
2022-09-02T09:38:30.106Z,4.13
2022-09-02T09:41:12.049Z,3.70
2022-09-02T09:43:39.711Z,3.95
2022-09-02T09:46:22.444Z,3.58
2022-09-02T09:48:52.447Z,3.30
2022-09-02T09:51:20.120Z,3.75
2022-09-02T09:53:48.313Z,3.85
2022-09-02T09:56:25.527Z,3.20
2022-09-02T09:58:53.251Z,3.40
2022-09-02T10:01:22.067Z,3.60
2022-09-02T10:03:53.206Z,2.97
2022-09-02T10:06:22.365Z,3.25
2022-09-02T10:08:54.421Z,4.10
2022-09-02T10:11:23.630Z,3.60
2022-09-02T10:13:51.432Z,3.53
2022-09-02T10:16:35.270Z,3.78
2022-09-02T10:19:09.923Z,3.40
2022-09-02T10:21:45.592Z,3.30
2022-09-02T10:24:31.908Z,3.85
2022-09-02T10:27:02.068Z,2.95
2022-09-02T10:29:44.198Z,3.00
2022-09-02T10:32:27.150Z,3.35
2022-09-02T10:35:02.589Z,3.03
2022-09-02T10:37:35.562Z,3.22
2022-09-02T10:40:09.896Z,3.20
2022-09-02T10:42:44.571Z,2.47
2022-09-02T10:47:40.726Z,3.58
2022-09-02T10:50:17.758Z,2.88
2022-09-02T10:53:02.682Z,2.85
2022-09-02T10:55:43.125Z,2.70
2022-09-02T10:58:14.439Z,2.92
2022-09-02T11:00:48.004Z,3.35
2022-09-02T11:03:20.802Z,3.30
2022-09-02T11:05:51.919Z,3.20
2022-09-02T11:08:29.547Z,2.78
2022-09-02T11:11:04.208Z,3.70
2022-09-02T11:13:36.840Z,2.72
2022-09-02T11:16:06.633Z,2.67
2022-09-02T11:18:36.914Z,2.72
2022-09-02T11:21:08.252Z,2.60
2022-09-02T11:23:38.578Z,2.83
2022-09-02T11:26:08.467Z,3.20
2022-09-02T11:28:39.408Z,2.85
2022-09-02T11:31:08.850Z,2.88
2022-09-02T11:33:44.975Z,2.63
2022-09-02T11:36:14.241Z,3.05
2022-09-02T11:38:45.341Z,3.00
2022-09-02T11:41:36.657Z,2.55
2022-09-02T11:44:14.649Z,2.75
2022-09-02T11:46:55.275Z,2.65
2022-09-02T11:49:31.956Z,2.97
2022-09-02T11:52:04.993Z,3.30
2022-09-02T11:54:35.321Z,2.58
2022-09-02T11:57:05.071Z,2.92
2022-09-02T11:59:51.759Z,3.00
2022-09-02T12:02:32.624Z,2.65
2022-09-02T12:05:30.925Z,2.47
2022-09-02T12:08:00.833Z,3.15
2022-09-02T12:10:48.725Z,2.80
2022-09-02T12:13:31.631Z,3.00
2022-09-02T12:16:15.146Z,3.38
2022-09-02T12:18:45.142Z,2.60
2022-09-02T12:21:16.314Z,3.63
2022-09-02T12:24:09.184Z,3.20
2022-09-02T12:26:55.352Z,2.60
2022-09-02T12:29:32.233Z,2.78
2022-09-02T12:32:01.095Z,2.88
2022-09-02T12:34:47.768Z,3.13
2022-09-02T12:37:30.653Z,2.63
2022-09-02T12:40:03.156Z,2.80
2022-09-02T12:42:33.438Z,2.78
2022-09-02T12:45:06.962Z,3.08
2022-09-02T12:47:41.505Z,2.57
2022-09-02T12:52:42.582Z,2.88
2022-09-02T12:55:16.370Z,2.40
2022-09-02T12:57:44.836Z,2.53
2022-09-02T13:00:14.489Z,3.00
2022-09-02T13:02:50.130Z,2.45
2022-09-02T13:05:22.174Z,2.47
2022-09-02T13:08:02.725Z,2.75
2022-09-02T13:10:45.821Z,3.05
2022-09-02T13:13:26.687Z,2.65
2022-09-02T13:16:18.664Z,2.65
2022-09-02T13:19:11.582Z,2.30
2022-09-02T13:21:59.171Z,2.45
2022-09-02T13:24:42.144Z,2.30
2022-09-02T13:27:17.144Z,2.50
2022-09-02T13:29:59.605Z,2.63
2022-09-02T13:32:30.391Z,2.40
2022-09-02T13:35:01.315Z,2.42
2022-09-02T13:37:33.875Z,2.63
2022-09-02T13:40:02.759Z,2.47
2022-09-02T13:42:32.776Z,2.58
2022-09-02T13:45:11.455Z,2.53
2022-09-02T13:47:42.741Z,2.20
2022-09-02T13:50:10.957Z,2.30
2022-09-02T13:53:26.385Z,2.40
2022-09-02T13:55:27.866Z,2.35
2022-09-02T13:57:58.330Z,2.30
2022-09-02T14:00:32.261Z,2.30
2022-09-02T14:03:02.440Z,3.20
2022-09-02T14:05:30.328Z,2.13
2022-09-02T14:08:00.152Z,2.50
2022-09-02T14:10:29.556Z,2.30
2022-09-02T14:12:57.694Z,2.17
2022-09-02T14:15:25.925Z,2.78
2022-09-02T14:18:11.891Z,1.80
2022-09-02T14:20:57.978Z,2.20
2022-09-02T14:23:28.620Z,2.50
2022-09-02T14:25:57.341Z,2.83
2022-09-02T14:28:26.080Z,2.20
2022-09-02T14:31:01.205Z,2.30
2022-09-02T14:33:38.806Z,2.03
2022-09-02T14:36:07.488Z,2.55
2022-09-02T14:38:36.745Z,2.38
2022-09-02T14:41:05.365Z,2.40
2022-09-02T14:43:41.484Z,2.75
2022-09-02T14:46:15.535Z,2.33
2022-09-02T14:48:44.844Z,2.65
2022-09-02T14:51:12.625Z,2.95
2022-09-02T14:53:44.961Z,2.95
2022-09-02T14:56:13.601Z,2.97
2022-09-02T14:58:41.763Z,2.90
2022-09-02T15:01:09.912Z,3.88
2022-09-02T15:03:38.782Z,3.30
2022-09-02T15:06:15.013Z,3.20
2022-09-02T15:08:44.602Z,4.05
2022-09-02T15:11:14.730Z,3.95
2022-09-02T15:13:42.477Z,3.55
2022-09-02T15:16:12.143Z,3.45
2022-09-02T15:18:39.861Z,3.92
2022-09-02T15:21:09.796Z,3.63
2022-09-02T15:23:41.229Z,3.78
2022-09-02T15:26:09.819Z,3.13
2022-09-02T15:28:38.604Z,2.72
2022-09-02T15:31:06.425Z,3.10
2022-09-02T15:33:34.302Z,2.22
2022-09-02T15:36:13.997Z,2.55
2022-09-02T15:38:42.163Z,2.60
2022-09-02T15:41:16.615Z,2.95
2022-09-02T15:43:44.864Z,2.58
2022-09-02T15:46:18.882Z,2.45
2022-09-02T15:48:46.823Z,2.30
2022-09-02T15:51:17.233Z,2.55
2022-09-02T15:53:45.206Z,2.83
2022-09-02T15:56:19.665Z,2.55
2022-09-02T15:58:47.543Z,3.25
2022-09-02T16:01:15.353Z,2.78
2022-09-02T16:03:44.196Z,2.70
2022-09-02T16:06:13.629Z,2.88
2022-09-02T16:08:42.723Z,2.42
2022-09-02T16:11:10.913Z,2.80
2022-09-02T16:13:39.269Z,2.63
2022-09-02T16:16:09.822Z,2.10
2022-09-02T16:18:38.355Z,2.80
2022-09-02T16:21:06.555Z,3.08
2022-09-02T16:23:34.454Z,2.78
2022-09-02T16:26:13.625Z,3.20
2022-09-02T16:28:42.249Z,2.53
2022-09-02T16:31:10.525Z,3.10
2022-09-02T16:33:38.301Z,2.30
2022-09-02T16:36:06.466Z,2.80
2022-09-02T16:38:34.992Z,2.78
2022-09-02T16:41:02.893Z,2.70
2022-09-02T16:43:37.244Z,3.80
2022-09-02T16:46:13.386Z,2.70
2022-09-02T16:48:41.387Z,2.95
2022-09-02T16:51:09.042Z,2.58
2022-09-02T16:53:37.048Z,2.67
2022-09-02T16:56:05.052Z,2.92
2022-09-02T16:58:34.237Z,2.97
2022-09-02T17:01:05.255Z,2.83
2022-09-02T17:03:33.054Z,2.80
2022-09-02T17:06:00.809Z,2.72
2022-09-02T17:08:28.460Z,3.38
2022-09-02T17:11:11.729Z,3.25
2022-09-02T17:13:41.308Z,2.90
2022-09-02T17:16:09.348Z,3.20
2022-09-02T17:18:37.276Z,2.70
2022-09-02T17:21:13.925Z,3.00
2022-09-02T17:23:41.796Z,2.78
2022-09-02T17:26:09.506Z,3.38
2022-09-02T17:28:47.382Z,2.85
2022-09-02T17:31:17.597Z,3.05
2022-09-02T17:33:45.606Z,3.20
2022-09-02T17:36:13.718Z,3.00
2022-09-02T17:38:41.718Z,3.20
2022-09-02T17:41:27.243Z,2.60
2022-09-02T17:43:54.944Z,2.70
2022-09-02T17:46:24.057Z,2.58
2022-09-02T17:49:15.239Z,2.47
2022-09-02T17:51:40.080Z,2.78
2022-09-02T17:54:08.351Z,2.72
2022-09-02T17:56:42.580Z,2.38
2022-09-02T17:59:25.066Z,2.73
2022-09-02T18:02:23.040Z,2.70
2022-09-02T18:04:53.750Z,3.38
2022-09-02T18:07:30.016Z,2.90
2022-09-02T18:09:58.133Z,2.55
2022-09-02T18:12:26.787Z,2.97
2022-09-02T18:14:57.056Z,3.10
2022-09-02T18:17:29.059Z,3.20
2022-09-02T18:20:00.351Z,3.10
2022-09-02T18:22:47.543Z,2.83
2022-09-02T18:25:21.431Z,3.13
2022-09-02T18:27:53.266Z,2.95
2022-09-02T18:30:21.879Z,2.65
2022-09-02T18:33:05.060Z,2.72
2022-09-02T18:35:36.884Z,3.00
2022-09-02T18:38:08.052Z,3.08
2022-09-02T18:40:44.176Z,2.80
2022-09-02T18:43:15.328Z,2.90
2022-09-02T18:45:47.849Z,2.70
2022-09-02T18:48:19.039Z,2.70
2022-09-02T18:50:51.637Z,2.65
2022-09-02T18:53:22.092Z,3.15
2022-09-02T18:55:50.001Z,2.53
2022-09-02T18:58:20.847Z,2.60
2022-09-02T19:00:51.306Z,2.75
2022-09-02T19:03:20.510Z,2.60
2022-09-02T19:05:48.183Z,2.40
2022-09-02T19:08:33.410Z,2.55
2022-09-02T19:11:03.040Z,2.70
2022-09-02T19:13:31.346Z,2.60
2022-09-02T19:16:04.123Z,2.78
2022-09-02T19:18:34.086Z,2.42
2022-09-02T19:21:02.061Z,2.58
2022-09-02T19:23:30.262Z,3.03
2022-09-02T19:25:59.329Z,2.75
2022-09-02T19:28:27.496Z,3.28
2022-09-02T19:30:58.725Z,2.83
2022-09-02T19:33:27.599Z,3.03
2022-09-02T19:35:59.373Z,3.47
2022-09-02T19:38:29.885Z,3.28
2022-09-02T19:40:57.635Z,3.35
2022-09-02T19:43:25.599Z,3.10
2022-09-02T19:45:53.359Z,3.55
2022-09-02T19:48:21.221Z,3.58
2022-09-02T19:50:49.487Z,3.60
2022-09-02T19:53:20.638Z,3.55
2022-09-02T19:55:48.392Z,2.97
2022-09-02T19:58:16.091Z,3.67
2022-09-02T20:00:43.886Z,3.20
2022-09-02T20:03:13.156Z,3.80
2022-09-02T20:05:40.891Z,3.38
2022-09-02T20:08:09.847Z,4.38
2022-09-02T20:10:39.324Z,3.38
2022-09-02T20:13:07.380Z,3.17
2022-09-02T20:15:37.733Z,3.08
2022-09-02T20:18:13.174Z,3.53
2022-09-02T20:20:43.592Z,3.40
2022-09-02T20:23:17.023Z,3.53
2022-09-02T20:25:54.293Z,3.85
2022-09-02T20:28:24.671Z,3.67
2022-09-02T20:30:57.541Z,3.47
2022-09-02T20:33:26.655Z,3.78
2022-09-02T20:36:05.037Z,3.75
2022-09-02T20:38:50.548Z,3.80
2022-09-02T20:43:56.974Z,4.05
2022-09-02T20:46:31.012Z,3.53
2022-09-02T20:49:04.331Z,3.92
2022-09-02T20:51:35.803Z,4.05
2022-09-02T20:54:13.552Z,3.30
2022-09-02T20:56:47.387Z,4.10
2022-09-02T20:59:21.270Z,5.25
2022-09-02T21:01:50.007Z,4.20
2022-09-02T21:04:28.350Z,4.10
2022-09-02T21:07:01.403Z,4.15
2022-09-02T21:09:34.717Z,4.68
2022-09-02T21:12:04.200Z,4.68
2022-09-02T21:14:38.871Z,4.82
2022-09-02T21:17:09.351Z,4.68
2022-09-02T21:19:40.710Z,4.65
2022-09-02T21:22:10.462Z,4.05
2022-09-02T21:24:39.614Z,4.90
2022-09-02T21:27:11.749Z,5.90
2022-09-02T21:29:43.246Z,4.75
2022-09-02T21:32:15.059Z,5.40
2022-09-02T21:34:46.882Z,5.15
2022-09-02T21:37:16.806Z,4.45
2022-09-02T21:39:51.103Z,4.13
2022-09-02T21:42:23.205Z,4.13
2022-09-02T21:45:00.344Z,4.90
2022-09-02T21:47:30.391Z,5.45
2022-09-02T21:50:04.959Z,4.30
2022-09-02T21:52:37.683Z,4.50
2022-09-02T21:55:09.481Z,4.68
2022-09-02T21:57:44.912Z,4.88
2022-09-02T22:00:16.005Z,4.75
2022-09-02T22:02:50.230Z,4.05
2022-09-02T22:05:26.091Z,4.60
2022-09-02T22:07:59.985Z,3.80
2022-09-02T22:10:30.400Z,4.25
2022-09-02T22:13:03.494Z,6.13
2022-09-02T22:15:39.947Z,6.28
2022-09-02T22:18:14.137Z,5.20
2022-09-02T22:20:45.191Z,5.65
2022-09-02T22:23:22.602Z,5.32
2022-09-02T22:25:50.448Z,4.95
2022-09-02T22:28:21.834Z,4.45
2022-09-02T22:30:56.859Z,4.72
2022-09-02T22:33:29.099Z,4.30
2022-09-02T22:36:01.733Z,4.13
2022-09-02T22:38:33.339Z,3.72
2022-09-02T22:41:02.928Z,3.95
2022-09-02T22:43:41.448Z,4.28
2022-09-02T22:46:29.922Z,4.88
2022-09-02T22:49:17.550Z,5.18
2022-09-02T22:52:05.045Z,5.07
2022-09-02T22:54:33.067Z,4.78
2022-09-02T22:57:04.063Z,4.32
2022-09-02T22:59:39.054Z,4.03
2022-09-02T23:02:13.980Z,4.57
2022-09-02T23:04:49.625Z,4.10
2022-09-02T23:07:17.573Z,4.38
2022-09-02T23:09:45.366Z,4.22
2022-09-02T23:12:18.393Z,5.50
2022-09-02T23:14:51.631Z,5.45
2022-09-02T23:17:27.619Z,4.82
2022-09-02T23:20:08.099Z,4.93
2022-09-02T23:22:42.260Z,4.60
2022-09-02T23:25:16.993Z,5.05
2022-09-02T23:27:47.355Z,5.30
2022-09-02T23:30:15.096Z,4.75
2022-09-02T23:33:02.259Z,6.00
2022-09-02T23:35:35.796Z,5.53
2022-09-02T23:38:16.933Z,5.03
2022-09-02T23:40:45.746Z,5.45
2022-09-02T23:43:18.522Z,5.70
2022-09-02T23:45:47.294Z,5.50
2022-09-02T23:48:28.837Z,5.07
2022-09-02T23:51:06.426Z,5.90
2022-09-02T23:53:37.196Z,5.78
2022-09-02T23:56:10.654Z,4.85
2022-09-02T23:58:45.514Z,5.80
